Hale, United Kingdom
Current Conditions -  °F | °C
As of 3:50 PM on Friday 28 Nov 2014 (Local Time) from EGLF Reporting Station
Few Clouds Few Clouds  
Wind Chill: 50°   Ceiling: Unl
Heat Index: 50°   Visibility: 5mi
Dew Point: 48°   Wind: 10mph
Humidity: 94%   Direction: 60°ENE
Pressure: 29.59"   Gusts: NA
Location:  51.22°N, 0.78°W
Report Text: EGLF 281550Z 06009KT 8000 FEW011 10/09 Q1002
Loading
Personal Weather Stations






























Interactive Weather Map New forecast layout! Learn more

10-Day Weather Forecast

Advertisements
Track Severe Weather on mobile